Time;durP1;ratioP1;P1;durP2;ratioP2;P2;SDS_P1;SDS_P2;PMS_P1;PMS_P2;Temp;Humidity;BMP_temperature;BMP_pressure;BME280_temperature;BME280_humidity;BME280_pressure;Samples;Min_cycle;Max_cycle;Signal;HPM_P1;HPM_P2
2021/09/15 00:01:35;;;;;;;;;;;17.60;99.90;;;;;;5071249;28;19920;-78
2021/09/15 00:04:01;;;;;;;;;;;17.60;99.90;;;;;;5066331;28;20377;-79
2021/09/15 00:06:27;;;;;;;;;;;17.60;99.90;;;;;;5060147;28;20006;-78
2021/09/15 00:08:52;;;;;;;;;;;17.60;99.90;;;;;;5067147;28;19924;-76
2021/09/15 00:11:19;;;;;;;;;;;17.60;99.90;;;;;;5057287;28;19916;-79
2021/09/15 00:13:45;;;;;;;;;;;17.60;99.90;;;;;;5054897;28;19913;-79
2021/09/15 00:16:11;;;;;;;;;;;17.70;99.90;;;;;;5055587;28;19923;-79
2021/09/15 00:18:37;;;;;;;;;;;17.60;99.90;;;;;;5057892;28;19912;-78
2021/09/15 00:21:03;;;;;;;;;;;17.60;99.90;;;;;;5070944;28;20308;-79
2021/09/15 00:23:28;;;;;;;;;;;17.60;99.90;;;;;;5075843;28;19916;-79
2021/09/15 00:25:54;;;;;;;;;;;17.60;99.90;;;;;;5074633;28;19917;-78
2021/09/15 00:28:19;;;;;;;;;;;17.60;99.90;;;;;;5064542;28;19913;-79
2021/09/15 00:30:45;;;;;;;;;;;17.60;99.90;;;;;;5067527;28;20007;-78
2021/09/15 00:33:11;;;;;;;;;;;17.60;99.90;;;;;;5074483;28;20323;-78
2021/09/15 00:35:36;;;;;;;;;;;17.60;99.90;;;;;;5070436;28;19924;-79
2021/09/15 00:38:02;;;;;;;;;;;17.60;99.90;;;;;;5075152;28;19921;-79
2021/09/15 00:40:27;;;;;;;;;;;17.70;99.90;;;;;;5059835;28;19935;-79
2021/09/15 00:42:53;;;;;;;;;;;17.70;99.90;;;;;;5069618;28;19995;-77
2021/09/15 00:45:19;;;;;;;;;;;17.80;99.90;;;;;;5069248;28;19999;-78
2021/09/15 00:47:48;;;;;;;;;;;17.80;99.90;;;;;;5066624;28;20204;-78
2021/09/15 00:50:14;;;;;;;;;;;17.80;99.90;;;;;;5066858;28;20274;-78
2021/09/15 00:52:40;;;;;;;;;;;17.80;99.90;;;;;;5061241;28;19913;-79
2021/09/15 00:55:06;;;;;;;;;;;17.80;99.90;;;;;;5048854;28;19966;-80
2021/09/15 00:57:31;;;;;;;;;;;17.80;99.90;;;;;;5074647;28;19923;-79
2021/09/15 00:59:57;;;;;;;;;;;17.80;99.90;;;;;;5074259;28;20223;-80
2021/09/15 01:02:22;;;;;;;;;;;17.80;99.90;;;;;;5065210;28;19966;-78
2021/09/15 01:04:48;;;;;;;;;;;17.80;99.90;;;;;;5076447;28;19952;-79
2021/09/15 01:07:14;;;;;;;;;;;17.80;99.90;;;;;;5067489;28;19970;-76
2021/09/15 01:09:39;;;;;;;;;;;17.70;99.90;;;;;;5068643;28;19912;-79
2021/09/15 01:12:09;;;;;;;;;;;17.70;99.90;;;;;;5077094;28;19998;-78
2021/09/15 01:14:36;;;;;;;;;;;17.70;99.90;;;;;;5068830;28;19973;-79
2021/09/15 01:17:02;;;;;;;;;;;17.70;99.90;;;;;;5068125;28;19923;-79
2021/09/15 01:19:28;;;;;;;;;;;17.70;99.90;;;;;;5054381;28;19916;-79
2021/09/15 01:21:54;;;;;;;;;;;17.70;99.90;;;;;;5074415;28;19917;-79
2021/09/15 01:24:20;;;;;;;;;;;17.70;99.90;;;;;;5066133;28;19912;-79
2021/09/15 01:26:45;;;;;;;;;;;17.70;99.90;;;;;;5077865;28;20246;-79
2021/09/15 01:29:20;;;;;;;;;;;17.70;99.90;;;;;;5070009;28;19919;-79
2021/09/15 01:31:55;;;;;;;;;;;17.60;99.90;;;;;;5070110;28;19912;-79
2021/09/15 01:34:21;;;;;;;;;;;17.60;99.90;;;;;;5078471;28;20213;-79
2021/09/15 01:36:47;;;;;;;;;;;17.60;99.90;;;;;;5068410;28;20319;-79
2021/09/15 01:39:12;;;;;;;;;;;17.50;99.90;;;;;;5078196;28;19923;-78
2021/09/15 01:41:38;;;;;;;;;;;17.50;99.90;;;;;;5063283;28;19917;-79
2021/09/15 01:44:03;;;;;;;;;;;17.40;99.90;;;;;;5084117;28;19973;-77
2021/09/15 01:46:29;;;;;;;;;;;17.40;99.90;;;;;;5057025;28;19920;-79
2021/09/15 01:48:55;;;;;;;;;;;17.40;99.90;;;;;;5082050;28;19912;-78
2021/09/15 01:51:20;;;;;;;;;;;17.40;99.90;;;;;;5071546;28;19966;-78
2021/09/15 01:53:46;;;;;;;;;;;17.40;99.90;;;;;;5064808;28;19912;-79
2021/09/15 01:56:11;;;;;;;;;;;17.30;99.90;;;;;;5069150;28;19999;-79
2021/09/15 01:58:37;;;;;;;;;;;17.40;99.90;;;;;;5073586;28;20011;-79
2021/09/15 02:01:02;;;;;;;;;;;17.40;99.90;;;;;;5078148;28;19975;-77
2021/09/15 02:03:28;;;;;;;;;;;17.40;99.90;;;;;;5080718;28;19916;-79
2021/09/15 02:05:53;;;;;;;;;;;17.50;99.90;;;;;;5072185;28;19920;-78
2021/09/15 02:08:19;;;;;;;;;;;17.50;99.90;;;;;;5072401;28;19917;-79
2021/09/15 02:10:44;;;;;;;;;;;17.50;99.90;;;;;;5077909;28;19920;-79
2021/09/15 02:13:10;;;;;;;;;;;17.60;99.90;;;;;;5073863;28;20053;-79
2021/09/15 02:15:36;;;;;;;;;;;17.50;99.90;;;;;;5077177;28;19912;-79
2021/09/15 02:18:02;;;;;;;;;;;17.50;99.90;;;;;;5077072;28;19916;-79
2021/09/15 02:20:27;;;;;;;;;;;17.50;99.90;;;;;;5057215;28;19920;-78
2021/09/15 02:22:53;;;;;;;;;;;17.50;99.90;;;;;;5077225;28;20320;-77
2021/09/15 02:25:18;;;;;;;;;;;17.40;99.90;;;;;;5054434;28;19947;-79
2021/09/15 02:27:44;;;;;;;;;;;17.30;99.90;;;;;;5067794;28;20002;-77
2021/09/15 02:30:09;;;;;;;;;;;17.30;99.90;;;;;;5073497;28;20215;-78
2021/09/15 02:32:35;;;;;;;;;;;17.30;99.90;;;;;;5061072;28;20020;-77
2021/09/15 02:35:01;;;;;;;;;;;17.30;99.90;;;;;;5082181;28;19970;-78
2021/09/15 02:37:26;;;;;;;;;;;17.20;99.90;;;;;;5070150;28;20341;-78
2021/09/15 02:39:52;;;;;;;;;;;17.20;99.90;;;;;;5070645;28;19924;-78
2021/09/15 02:42:17;;;;;;;;;;;17.20;99.90;;;;;;5074475;28;20304;-78
2021/09/15 02:44:43;;;;;;;;;;;17.20;99.90;;;;;;5048633;28;19923;-77
2021/09/15 02:47:08;;;;;;;;;;;17.10;99.90;;;;;;5075725;28;19916;-78
2021/09/15 02:49:34;;;;;;;;;;;17.00;99.90;;;;;;5080551;28;20221;-77
2021/09/15 02:52:00;;;;;;;;;;;17.10;99.90;;;;;;5081608;28;20362;-78
2021/09/15 02:54:25;;;;;;;;;;;17.10;99.90;;;;;;5069993;28;19916;-78
2021/09/15 02:56:51;;;;;;;;;;;17.10;99.90;;;;;;5069940;28;19963;-78
2021/09/15 02:59:16;;;;;;;;;;;17.10;99.90;;;;;;5072725;28;19919;-78
2021/09/15 03:01:42;;;;;;;;;;;17.10;99.90;;;;;;5072830;28;19989;-78
2021/09/15 03:04:07;;;;;;;;;;;17.00;99.90;;;;;;5073984;28;19919;-78
2021/09/15 03:06:33;;;;;;;;;;;17.00;99.90;;;;;;5059770;28;19916;-75
2021/09/15 03:08:59;;;;;;;;;;;17.00;99.90;;;;;;5072365;28;19916;-78
2021/09/15 03:11:24;;;;;;;;;;;17.10;99.90;;;;;;5078482;28;19924;-78
2021/09/15 03:13:50;;;;;;;;;;;17.00;99.90;;;;;;5076096;28;19963;-77
2021/09/15 03:16:15;;;;;;;;;;;17.00;99.90;;;;;;5079529;28;19927;-77
2021/09/15 03:18:41;;;;;;;;;;;17.00;99.90;;;;;;5080134;28;19916;-78
2021/09/15 03:21:07;;;;;;;;;;;16.90;99.90;;;;;;5071063;28;20366;-78
2021/09/15 03:23:33;;;;;;;;;;;16.90;99.90;;;;;;5072425;28;20012;-76
2021/09/15 03:25:58;;;;;;;;;;;16.90;99.90;;;;;;5067843;28;19979;-78
2021/09/15 03:28:24;;;;;;;;;;;16.90;99.90;;;;;;5071163;28;20212;-77
2021/09/15 03:30:50;;;;;;;;;;;16.90;99.90;;;;;;5050723;28;19966;-78
2021/09/15 03:33:15;;;;;;;;;;;17.00;99.90;;;;;;5051348;28;19944;-77
2021/09/15 03:35:41;;;;;;;;;;;16.90;99.90;;;;;;5069139;28;19927;-78
2021/09/15 03:38:06;;;;;;;;;;;16.90;99.90;;;;;;5073605;28;19951;-77
2021/09/15 03:40:32;;;;;;;;;;;16.90;99.90;;;;;;5076048;28;19912;-78
2021/09/15 03:42:57;;;;;;;;;;;16.90;99.90;;;;;;5070903;28;20298;-77
2021/09/15 03:45:23;;;;;;;;;;;16.90;99.90;;;;;;5061721;28;19916;-78
2021/09/15 03:47:49;;;;;;;;;;;16.80;99.90;;;;;;5084925;28;19966;-78
2021/09/15 03:50:14;;;;;;;;;;;16.80;99.90;;;;;;5089341;28;20371;-77
2021/09/15 03:52:40;;;;;;;;;;;16.80;99.90;;;;;;5086549;28;19927;-78
2021/09/15 03:55:05;;;;;;;;;;;16.80;99.90;;;;;;5064072;28;19959;-77
2021/09/15 03:57:31;;;;;;;;;;;16.80;99.90;;;;;;5083182;28;20381;-78
2021/09/15 03:59:57;;;;;;;;;;;16.80;99.90;;;;;;5068899;28;19916;-78
2021/09/15 04:02:22;;;;;;;;;;;16.80;99.90;;;;;;5088009;28;19916;-78
2021/09/15 04:04:48;;;;;;;;;;;16.80;99.90;;;;;;5084814;28;19923;-78
2021/09/15 04:07:13;;;;;;;;;;;16.90;99.90;;;;;;5083800;28;19915;-78
2021/09/15 04:09:39;;;;;;;;;;;16.90;99.90;;;;;;5084493;28;19913;-78
2021/09/15 04:12:05;;;;;;;;;;;16.90;99.90;;;;;;5072082;28;20222;-77
2021/09/15 04:14:30;;;;;;;;;;;16.90;99.90;;;;;;5087688;28;19955;-78
2021/09/15 04:16:56;;;;;;;;;;;16.80;99.90;;;;;;5064251;28;19931;-78
2021/09/15 04:19:22;;;;;;;;;;;16.80;99.90;;;;;;5089578;28;19920;-78
2021/09/15 04:21:47;;;;;;;;;;;16.80;99.90;;;;;;5082959;28;19955;-78
2021/09/15 04:24:35;;;;;;;;;;;16.80;99.90;;;;;;5079121;28;19921;-78
2021/09/15 04:32:29;;;;;;;;;;;16.80;99.90;;;;;;5069595;28;19973;-78
2021/09/15 04:34:54;;;;;;;;;;;16.90;99.90;;;;;;5048034;28;20227;-77
2021/09/15 04:37:20;;;;;;;;;;;16.90;99.90;;;;;;5064799;28;19923;-77
2021/09/15 04:39:46;;;;;;;;;;;17.00;99.90;;;;;;5072332;28;19913;-77
2021/09/15 04:42:11;;;;;;;;;;;17.00;99.90;;;;;;5074450;28;19912;-78
2021/09/15 04:44:37;;;;;;;;;;;17.00;99.90;;;;;;5068842;28;20227;-77
2021/09/15 04:47:02;;;;;;;;;;;17.00;99.90;;;;;;5078263;28;19920;-76
2021/09/15 04:49:28;;;;;;;;;;;17.00;99.90;;;;;;5055088;28;19917;-77
2021/09/15 04:51:54;;;;;;;;;;;17.10;99.90;;;;;;5077224;28;20292;-77
2021/09/15 04:54:19;;;;;;;;;;;17.10;99.90;;;;;;5066796;28;20261;-77
2021/09/15 04:56:45;;;;;;;;;;;17.10;99.90;;;;;;5073782;28;19916;-77
2021/09/15 04:59:10;;;;;;;;;;;17.10;99.90;;;;;;5070036;28;20335;-78
2021/09/15 05:01:36;;;;;;;;;;;17.20;99.90;;;;;;5045823;28;19920;-77
2021/09/15 05:04:01;;;;;;;;;;;17.10;99.90;;;;;;5072055;28;20308;-78
2021/09/15 05:06:27;;;;;;;;;;;17.10;99.90;;;;;;5061708;28;19912;-78
2021/09/15 05:08:52;;;;;;;;;;;17.10;99.90;;;;;;5075019;28;19920;-78
2021/09/15 05:11:18;;;;;;;;;;;17.00;99.90;;;;;;5070275;28;19917;-77
2021/09/15 05:13:44;;;;;;;;;;;17.00;99.90;;;;;;5056235;28;19916;-77
2021/09/15 05:16:09;;;;;;;;;;;17.00;99.90;;;;;;5075049;28;19920;-77
2021/09/15 05:18:35;;;;;;;;;;;17.00;99.90;;;;;;5065524;28;20581;-76
2021/09/15 05:21:00;;;;;;;;;;;16.90;99.90;;;;;;5057116;28;19913;-77
2021/09/15 05:23:26;;;;;;;;;;;17.00;99.90;;;;;;5065837;28;19948;-78
2021/09/15 05:25:51;;;;;;;;;;;17.00;99.90;;;;;;5074767;28;19920;-77
2021/09/15 05:28:17;;;;;;;;;;;17.10;99.90;;;;;;5051034;28;20387;-77
2021/09/15 05:30:43;;;;;;;;;;;17.10;99.90;;;;;;5081054;28;19916;-77
2021/09/15 05:33:08;;;;;;;;;;;17.20;99.90;;;;;;5065591;28;19917;-78
2021/09/15 05:35:34;;;;;;;;;;;17.20;99.90;;;;;;5059875;28;20319;-78
2021/09/15 05:38:00;;;;;;;;;;;17.20;99.90;;;;;;5076579;28;19923;-77
2021/09/15 05:40:25;;;;;;;;;;;17.20;99.90;;;;;;5053191;28;19916;-77
2021/09/15 05:42:51;;;;;;;;;;;17.20;99.90;;;;;;5052617;28;19913;-78
2021/09/15 05:45:16;;;;;;;;;;;17.20;99.90;;;;;;5073060;28;19927;-78
2021/09/15 05:47:42;;;;;;;;;;;17.20;99.90;;;;;;5073090;28;20342;-78
2021/09/15 05:50:08;;;;;;;;;;;17.20;99.90;;;;;;5087791;28;19912;-77
2021/09/15 05:52:34;;;;;;;;;;;17.20;99.90;;;;;;5071046;28;20013;-77
2021/09/15 05:55:00;;;;;;;;;;;17.20;99.90;;;;;;5075224;28;20310;-78
2021/09/15 05:57:25;;;;;;;;;;;17.20;99.90;;;;;;5089410;28;19989;-78
2021/09/15 05:59:51;;;;;;;;;;;17.20;99.90;;;;;;5087177;28;20315;-78
2021/09/15 06:02:16;;;;;;;;;;;17.10;99.90;;;;;;5082485;28;20201;-77
2021/09/15 06:04:42;;;;;;;;;;;17.00;99.90;;;;;;5083174;28;19920;-78
2021/09/15 06:07:07;;;;;;;;;;;17.00;99.90;;;;;;5064199;28;20257;-78
2021/09/15 06:09:33;;;;;;;;;;;17.00;99.90;;;;;;5077350;28;20011;-81
2021/09/15 06:11:59;;;;;;;;;;;17.00;99.90;;;;;;5074476;28;19918;-78
2021/09/15 06:14:24;;;;;;;;;;;17.00;99.90;;;;;;5075427;28;19920;-77
2021/09/15 06:16:50;;;;;;;;;;;17.10;99.90;;;;;;5087023;28;19981;-78
2021/09/15 06:19:15;;;;;;;;;;;17.20;99.90;;;;;;5066261;28;19917;-78
2021/09/15 06:21:41;;;;;;;;;;;17.20;99.90;;;;;;5079577;28;19982;-78
2021/09/15 06:24:06;;;;;;;;;;;17.20;99.90;;;;;;5082601;28;19926;-77
2021/09/15 06:26:32;;;;;;;;;;;17.30;99.90;;;;;;5073904;28;19916;-77
2021/09/15 06:28:57;;;;;;;;;;;17.30;99.90;;;;;;5071169;28;20015;-77
2021/09/15 06:31:24;;;;;;;;;;;17.30;99.90;;;;;;5059723;28;20002;-77
2021/09/15 06:33:50;;;;;;;;;;;17.40;99.90;;;;;;5051796;28;19916;-77
2021/09/15 06:36:16;;;;;;;;;;;17.40;99.90;;;;;;5070155;28;19999;-77
2021/09/15 06:38:42;;;;;;;;;;;17.40;99.90;;;;;;5080274;28;19916;-78
2021/09/15 06:41:08;;;;;;;;;;;17.40;99.90;;;;;;5082334;28;19916;-79
2021/09/15 06:43:34;;;;;;;;;;;17.30;99.90;;;;;;5083810;28;19944;-76
2021/09/15 06:45:59;;;;;;;;;;;17.30;99.90;;;;;;5082273;28;19919;-76
2021/09/15 06:48:25;;;;;;;;;;;17.30;99.90;;;;;;5090884;28;19916;-78
2021/09/15 06:50:50;;;;;;;;;;;17.30;99.90;;;;;;5076652;28;19917;-77
2021/09/15 06:53:16;;;;;;;;;;;17.40;99.90;;;;;;5065455;28;19912;-77
2021/09/15 06:55:42;;;;;;;;;;;17.40;99.90;;;;;;5075977;28;20354;-78
2021/09/15 06:58:07;;;;;;;;;;;17.40;99.90;;;;;;5082933;28;19916;-77
2021/09/15 07:00:33;;;;;;;;;;;17.50;99.90;;;;;;5087091;28;20019;-76
2021/09/15 07:02:59;;;;;;;;;;;17.50;99.90;;;;;;5061953;28;20363;-77
2021/09/15 07:05:24;;;;;;;;;;;17.60;99.90;;;;;;5071641;28;20312;-77
2021/09/15 07:07:50;;;;;;;;;;;17.70;99.90;;;;;;5076958;28;19935;-77
2021/09/15 07:10:17;;;;;;;;;;;17.80;99.90;;;;;;5078606;28;19916;-77
2021/09/15 07:12:44;;;;;;;;;;;17.80;99.90;;;;;;5058424;28;20322;-75
2021/09/15 07:15:10;;;;;;;;;;;17.70;99.90;;;;;;5057270;28;19913;-77
2021/09/15 07:17:36;;;;;;;;;;;17.80;99.90;;;;;;5084166;28;19920;-77
2021/09/15 07:20:03;;;;;;;;;;;17.80;99.90;;;;;;5077066;28;19912;-77
2021/09/15 07:22:29;;;;;;;;;;;17.80;99.90;;;;;;5062101;28;19916;-77
2021/09/15 07:24:54;;;;;;;;;;;17.90;99.90;;;;;;5074568;28;19936;-77
2021/09/15 07:27:20;;;;;;;;;;;17.80;99.90;;;;;;5062161;28;19920;-78
2021/09/15 07:29:45;;;;;;;;;;;17.80;99.90;;;;;;5073449;28;19919;-77
2021/09/15 07:32:11;;;;;;;;;;;17.80;99.90;;;;;;5078984;28;19923;-76
2021/09/15 07:34:39;;;;;;;;;;;17.80;99.90;;;;;;5070638;28;19970;-77
2021/09/15 07:37:05;;;;;;;;;;;17.80;99.90;;;;;;5067604;28;19925;-78
2021/09/15 07:39:31;;;;;;;;;;;17.90;99.90;;;;;;5058124;28;20568;-79
2021/09/15 07:41:56;;;;;;;;;;;17.90;99.90;;;;;;5081391;28;19916;-78
2021/09/15 07:44:22;;;;;;;;;;;17.90;99.90;;;;;;5078986;28;20040;-79
2021/09/15 07:46:47;;;;;;;;;;;18.00;99.90;;;;;;5083744;28;19964;-79
2021/09/15 07:49:13;;;;;;;;;;;18.10;99.90;;;;;;5077108;28;19917;-76
2021/09/15 07:51:39;;;;;;;;;;;18.40;99.90;;;;;;5075040;28;19920;-79
2021/09/15 07:54:05;;;;;;;;;;;18.90;99.90;;;;;;5075697;28;19920;-78
2021/09/15 07:56:30;;;;;;;;;;;19.20;99.90;;;;;;5058160;28;20444;-79
2021/09/15 07:58:56;;;;;;;;;;;19.50;99.90;;;;;;5075435;28;20044;-79
2021/09/15 08:01:25;;;;;;;;;;;19.60;99.90;;;;;;5077212;28;19920;-80
2021/09/15 08:03:51;;;;;;;;;;;19.90;99.90;;;;;;5058353;28;19917;-80
2021/09/15 08:06:17;;;;;;;;;;;20.20;99.90;;;;;;5074662;28;19920;-79
2021/09/15 08:08:42;;;;;;;;;;;20.60;99.90;;;;;;5075221;28;19921;-79
2021/09/15 08:11:08;;;;;;;;;;;20.90;99.90;;;;;;5075292;28;19916;-79
2021/09/15 08:13:34;;;;;;;;;;;21.00;99.90;;;;;;5074484;28;19921;-77
2021/09/15 08:15:59;;;;;;;;;;;21.10;99.90;;;;;;5075729;28;20011;-79
2021/09/15 08:18:25;;;;;;;;;;;21.30;99.90;;;;;;5072761;28;20342;-78
2021/09/15 08:20:50;;;;;;;;;;;21.30;99.90;;;;;;5072423;28;20020;-79
2021/09/15 08:23:19;;;;;;;;;;;21.10;99.90;;;;;;5069975;28;20202;-78
2021/09/15 08:25:45;;;;;;;;;;;21.00;99.90;;;;;;5067286;28;19920;-78
2021/09/15 08:28:11;;;;;;;;;;;20.80;99.90;;;;;;5053069;28;19932;-78
2021/09/15 08:30:37;;;;;;;;;;;20.70;99.90;;;;;;5070685;28;19982;-78
2021/09/15 08:33:02;;;;;;;;;;;20.60;99.90;;;;;;5071189;28;19952;-79
2021/09/15 08:35:28;;;;;;;;;;;20.40;99.90;;;;;;5067427;28;20027;-78
2021/09/15 08:37:54;;;;;;;;;;;20.20;99.90;;;;;;5051496;28;19917;-78
2021/09/15 08:40:20;;;;;;;;;;;20.00;99.90;;;;;;5065378;28;19925;-77
2021/09/15 08:42:45;;;;;;;;;;;19.80;99.90;;;;;;5076193;28;19920;-78
2021/09/15 08:45:12;;;;;;;;;;;19.70;99.90;;;;;;5059283;28;19912;-78
2021/09/15 08:47:39;;;;;;;;;;;19.60;99.90;;;;;;5059835;28;20008;-78
2021/09/15 08:50:06;;;;;;;;;;;19.50;99.90;;;;;;5074951;28;19919;-77
2021/09/15 08:52:31;;;;;;;;;;;19.50;99.90;;;;;;5056164;28;20270;-77
2021/09/15 08:54:57;;;;;;;;;;;19.50;99.90;;;;;;5073723;28;19912;-78
2021/09/15 08:57:23;;;;;;;;;;;19.50;99.90;;;;;;5055998;28;19921;-78
2021/09/15 08:59:48;;;;;;;;;;;19.50;99.90;;;;;;5072893;28;20494;-77
2021/09/15 09:02:14;;;;;;;;;;;19.50;99.90;;;;;;5074865;28;20006;-77
2021/09/15 09:04:54;;;;;;;;;;;19.40;99.90;;;;;;5073945;28;19951;-77
2021/09/15 09:07:20;;;;;;;;;;;19.30;99.90;;;;;;5071578;28;19916;-77
2021/09/15 09:09:46;;;;;;;;;;;19.40;99.90;;;;;;5074446;28;20004;-76
2021/09/15 09:12:11;;;;;;;;;;;19.40;99.90;;;;;;5073942;28;19923;-77
2021/09/15 09:14:37;;;;;;;;;;;19.30;99.90;;;;;;5070608;28;19920;-77
2021/09/15 09:17:02;;;;;;;;;;;19.30;99.90;;;;;;5067172;28;19920;-77
2021/09/15 09:19:28;;;;;;;;;;;19.30;99.90;;;;;;5057469;28;19923;-77
2021/09/15 09:21:54;;;;;;;;;;;19.30;99.90;;;;;;5050740;28;20512;-76
2021/09/15 09:24:24;;;;;;;;;;;19.20;99.90;;;;;;5054376;28;19917;-77
2021/09/15 09:26:54;;;;;;;;;;;19.20;99.90;;;;;;5075249;28;19934;-78
2021/09/15 09:29:22;;;;;;;;;;;19.10;99.90;;;;;;5073192;28;20256;-77
2021/09/15 09:32:05;;;;;;;;;;;19.10;99.90;;;;;;5073279;28;19912;-78
2021/09/15 09:34:39;;;;;;;;;;;19.10;99.90;;;;;;5070343;28;20035;-77
2021/09/15 09:37:06;;;;;;;;;;;19.00;99.90;;;;;;5070776;28;19928;-76
2021/09/15 09:39:42;;;;;;;;;;;19.00;99.90;;;;;;5055871;28;19912;-77
2021/09/15 09:42:22;;;;;;;;;;;19.00;99.90;;;;;;5050010;28;20280;-76
2021/09/15 09:44:47;;;;;;;;;;;19.10;99.90;;;;;;5057008;28;19920;-77
2021/09/15 09:47:21;;;;;;;;;;;19.10;99.90;;;;;;5071812;28;19921;-76
2021/09/15 09:49:58;;;;;;;;;;;19.10;99.90;;;;;;5058140;28;19981;-76
2021/09/15 09:52:24;;;;;;;;;;;19.10;99.90;;;;;;5080224;28;20017;-77
2021/09/15 09:54:57;;;;;;;;;;;19.10;99.90;;;;;;5062730;28;20312;-77
2021/09/15 09:57:22;;;;;;;;;;;19.20;99.90;;;;;;5061508;28;19924;-77
2021/09/15 09:59:48;;;;;;;;;;;19.20;99.90;;;;;;5078136;28;19932;-77
2021/09/15 10:02:13;;;;;;;;;;;19.20;99.90;;;;;;5081423;28;19923;-75
2021/09/15 10:04:41;;;;;;;;;;;19.20;99.90;;;;;;5076657;28;20318;-76
2021/09/15 10:07:07;;;;;;;;;;;19.20;99.90;;;;;;5080084;28;19913;-77
2021/09/15 10:09:32;;;;;;;;;;;19.30;99.90;;;;;;5071752;28;19923;-76
2021/09/15 10:11:58;;;;;;;;;;;19.30;99.90;;;;;;5051508;28;19932;-77
2021/09/15 10:14:25;;;;;;;;;;;19.30;99.90;;;;;;5051175;28;20256;-76
2021/09/15 10:17:11;;;;;;;;;;;19.30;99.90;;;;;;5076005;28;19916;-77
2021/09/15 10:19:39;;;;;;;;;;;19.30;99.90;;;;;;5076309;28;19920;-77
2021/09/15 10:22:05;;;;;;;;;;;19.30;99.90;;;;;;5057880;28;19912;-77
2021/09/15 10:24:49;;;;;;;;;;;19.30;99.90;;;;;;5082078;28;19956;-76
2021/09/15 10:27:15;;;;;;;;;;;19.40;99.90;;;;;;5059412;28;19912;-76
2021/09/15 10:29:41;;;;;;;;;;;19.40;99.90;;;;;;5077928;28;20304;-76
2021/09/15 10:32:08;;;;;;;;;;;19.40;99.90;;;;;;5073354;28;19917;-77
2021/09/15 10:34:38;;;;;;;;;;;19.40;99.90;;;;;;5048858;28;19931;-77
2021/09/15 10:37:13;;;;;;;;;;;19.50;99.90;;;;;;5071736;28;19927;-76
2021/09/15 10:39:54;;;;;;;;;;;19.50;99.90;;;;;;5066882;28;19964;-77
2021/09/15 10:42:34;;;;;;;;;;;19.50;99.90;;;;;;5069844;28;19913;-76
2021/09/15 10:45:09;;;;;;;;;;;19.50;99.90;;;;;;5071923;28;19967;-77
2021/09/15 10:47:45;;;;;;;;;;;19.60;99.90;;;;;;5060753;28;19913;-76
2021/09/15 10:50:12;;;;;;;;;;;19.50;99.90;;;;;;5058526;28;19959;-76
2021/09/15 10:52:44;;;;;;;;;;;19.60;99.90;;;;;;5060290;28;19916;-77
2021/09/15 10:55:23;;;;;;;;;;;19.60;99.90;;;;;;5051800;28;19917;-77
2021/09/15 10:57:49;;;;;;;;;;;19.70;99.90;;;;;;5068956;28;19927;-77
2021/09/15 11:00:15;;;;;;;;;;;19.70;99.90;;;;;;5070649;28;19917;-76
2021/09/15 11:02:41;;;;;;;;;;;19.80;99.90;;;;;;5052481;28;19916;-77
2021/09/15 11:05:25;;;;;;;;;;;19.80;99.90;;;;;;5051941;28;19923;-77
2021/09/15 11:07:51;;;;;;;;;;;19.90;99.90;;;;;;5054116;28;20378;-77
2021/09/15 11:10:35;;;;;;;;;;;19.90;99.90;;;;;;5070128;28;19916;-77
2021/09/15 11:13:01;;;;;;;;;;;19.90;99.90;;;;;;5068058;28;19920;-77
2021/09/15 11:15:27;;;;;;;;;;;19.90;99.90;;;;;;5071385;28;19922;-77
2021/09/15 11:17:53;;;;;;;;;;;19.80;99.90;;;;;;5073760;28;19924;-77
2021/09/15 11:20:19;;;;;;;;;;;19.90;99.90;;;;;;5081162;28;19920;-77
2021/09/15 11:22:46;;;;;;;;;;;19.80;99.90;;;;;;5073815;28;20345;-76
2021/09/15 11:25:22;;;;;;;;;;;19.80;99.90;;;;;;5071822;28;19920;-77
2021/09/15 11:28:08;;;;;;;;;;;19.90;99.90;;;;;;5068766;28;20015;-76
2021/09/15 11:30:39;;;;;;;;;;;19.90;99.90;;;;;;5070145;28;19967;-76
2021/09/15 11:33:04;;;;;;;;;;;19.90;99.90;;;;;;5073757;28;19935;-76
2021/09/15 11:35:34;;;;;;;;;;;19.90;99.90;;;;;;5053689;28;20311;-77
2021/09/15 11:38:00;;;;;;;;;;;19.90;99.90;;;;;;5049666;28;19924;-76
2021/09/15 11:40:29;;;;;;;;;;;19.90;99.90;;;;;;5053234;28;19920;-76
2021/09/15 11:42:56;;;;;;;;;;;20.00;99.90;;;;;;5069822;28;19959;-76
2021/09/15 11:45:23;;;;;;;;;;;20.00;99.90;;;;;;5069921;28;20004;-77
2021/09/15 11:47:53;;;;;;;;;;;19.90;99.90;;;;;;5073142;28;19916;-76
2021/09/15 11:50:29;;;;;;;;;;;19.90;99.90;;;;;;5075402;28;19920;-76
2021/09/15 11:53:01;;;;;;;;;;;19.80;99.90;;;;;;5076743;28;19916;-76
2021/09/15 11:55:29;;;;;;;;;;;19.80;99.90;;;;;;5074202;28;19912;-76
2021/09/15 11:58:00;;;;;;;;;;;19.70;99.90;;;;;;5064943;28;19963;-77
2021/09/15 12:00:26;;;;;;;;;;;19.70;99.90;;;;;;5074186;28;20010;-76
2021/09/15 12:02:54;;;;;;;;;;;19.60;99.90;;;;;;5077288;28;19919;-77
2021/09/15 12:05:20;;;;;;;;;;;19.60;99.90;;;;;;5053697;28;19920;-77
2021/09/15 12:07:45;;;;;;;;;;;19.60;99.90;;;;;;5074972;28;19920;-76
2021/09/15 12:10:12;;;;;;;;;;;19.50;99.90;;;;;;5069917;28;19912;-77
2021/09/15 12:12:38;;;;;;;;;;;19.50;99.90;;;;;;5079441;28;19913;-76
2021/09/15 12:15:03;;;;;;;;;;;19.50;99.90;;;;;;5066267;28;19927;-75
2021/09/15 12:17:29;;;;;;;;;;;19.40;99.90;;;;;;5068242;28;19920;-76
2021/09/15 12:19:56;;;;;;;;;;;19.40;99.90;;;;;;5066806;28;19912;-77
2021/09/15 12:22:22;;;;;;;;;;;19.40;99.90;;;;;;5080214;28;20315;-77
2021/09/15 12:25:06;;;;;;;;;;;19.40;99.90;;;;;;5082798;28;19955;-78
2021/09/15 12:27:32;;;;;;;;;;;19.40;99.90;;;;;;5067744;28;19964;-76
2021/09/15 12:29:59;;;;;;;;;;;19.50;99.90;;;;;;5085377;28;19920;-78
2021/09/15 12:32:28;;;;;;;;;;;19.50;99.90;;;;;;5087032;28;20307;-76
2021/09/15 12:34:54;;;;;;;;;;;19.50;99.90;;;;;;5053747;28;19936;-76
2021/09/15 12:37:20;;;;;;;;;;;19.50;99.90;;;;;;5055154;28;20223;-77
2021/09/15 12:39:46;;;;;;;;;;;19.50;99.90;;;;;;5076882;28;19959;-76
2021/09/15 12:42:16;;;;;;;;;;;19.50;99.90;;;;;;5060386;28;19912;-76
2021/09/15 12:44:41;;;;;;;;;;;19.50;99.90;;;;;;5070439;28;19966;-77
2021/09/15 12:47:07;;;;;;;;;;;19.60;99.90;;;;;;5074605;28;19936;-76
2021/09/15 12:49:34;;;;;;;;;;;19.60;99.90;;;;;;5076890;28;19920;-76
2021/09/15 12:52:28;;;;;;;;;;;19.80;99.90;;;;;;5090080;28;19944;-76
2021/09/15 12:54:56;;;;;;;;;;;19.80;99.90;;;;;;5043004;28;20315;-76
2021/09/15 12:57:29;;;;;;;;;;;19.90;99.90;;;;;;5028225;28;19923;-76
2021/09/15 12:59:55;;;;;;;;;;;19.90;99.90;;;;;;5045562;28;19920;-75
2021/09/15 13:02:30;;;;;;;;;;;19.90;99.90;;;;;;5043080;28;19917;-76
2021/09/15 13:04:56;;;;;;;;;;;19.90;99.90;;;;;;5015818;28;19971;-76
2021/09/15 13:07:22;;;;;;;;;;;19.90;99.90;;;;;;5033634;28;19913;-76
2021/09/15 13:09:48;;;;;;;;;;;19.90;99.90;;;;;;5024186;28;19925;-76
2021/09/15 13:12:16;;;;;;;;;;;19.90;99.90;;;;;;5022308;28;20227;-75
2021/09/15 13:14:42;;;;;;;;;;;19.90;99.90;;;;;;5035670;28;19913;-77
2021/09/15 13:17:08;;;;;;;;;;;19.80;99.90;;;;;;5028714;28;20008;-76
2021/09/15 13:19:33;;;;;;;;;;;19.80;99.90;;;;;;5029996;28;19924;-77
2021/09/15 13:21:59;;;;;;;;;;;19.80;99.90;;;;;;5030226;28;19913;-76
2021/09/15 13:24:24;;;;;;;;;;;19.80;99.90;;;;;;5020530;28;19936;-76
2021/09/15 13:26:50;;;;;;;;;;;19.70;99.90;;;;;;5031030;28;19921;-76
2021/09/15 13:29:15;;;;;;;;;;;19.70;99.90;;;;;;5030636;28;20003;-75
2021/09/15 13:31:41;;;;;;;;;;;19.70;99.90;;;;;;5058600;28;20261;-76
2021/09/15 13:34:07;;;;;;;;;;;19.60;99.90;;;;;;5066390;28;19944;-76
2021/09/15 13:36:32;;;;;;;;;;;19.50;99.90;;;;;;5064479;28;19981;-78
2021/09/15 13:38:58;;;;;;;;;;;19.50;99.90;;;;;;5048209;28;19924;-76
2021/09/15 13:41:23;;;;;;;;;;;19.40;99.90;;;;;;5068788;28;19947;-76
2021/09/15 13:43:49;;;;;;;;;;;19.30;99.90;;;;;;5066386;28;19912;-76
2021/09/15 13:46:15;;;;;;;;;;;19.20;99.90;;;;;;5067854;28;20379;-76
2021/09/15 13:48:40;;;;;;;;;;;19.10;99.90;;;;;;5046890;28;19924;-77
2021/09/15 13:51:06;;;;;;;;;;;18.80;99.90;;;;;;5067449;28;20011;-76
2021/09/15 13:53:31;;;;;;;;;;;18.60;99.90;;;;;;5067117;28;20304;-77
2021/09/15 13:55:57;;;;;;;;;;;18.40;99.90;;;;;;5065634;28;20003;-77
2021/09/15 13:58:23;;;;;;;;;;;18.40;99.90;;;;;;5068070;28;19978;-78
2021/09/15 14:00:48;;;;;;;;;;;18.30;99.90;;;;;;5061216;28;20212;-78
2021/09/15 14:03:14;;;;;;;;;;;18.30;99.90;;;;;;5062828;28;19917;-76
2021/09/15 14:05:39;;;;;;;;;;;18.40;99.90;;;;;;5050424;28;19917;-78
2021/09/15 14:08:05;;;;;;;;;;;18.40;99.90;;;;;;5062764;28;19921;-80
2021/09/15 14:10:30;;;;;;;;;;;18.40;99.90;;;;;;5066015;28;20258;-76
2021/09/15 14:12:56;;;;;;;;;;;18.40;99.90;;;;;;5063489;28;19925;-77
2021/09/15 14:15:22;;;;;;;;;;;18.40;99.90;;;;;;5045163;28;19916;-78
2021/09/15 14:17:47;;;;;;;;;;;18.40;99.90;;;;;;5065794;28;20230;-77
2021/09/15 14:20:13;;;;;;;;;;;18.30;99.90;;;;;;5064391;28;21130;-78